createdAt,value
2023-05-06T00:02:25.443Z,13.18
2023-05-06T00:05:04.173Z,12.18
2023-05-06T00:07:42.499Z,12.18
2023-05-06T00:10:14.130Z,10.98
2023-05-06T00:12:51.713Z,12.07
2023-05-06T00:15:38.585Z,11.55
2023-05-06T00:18:25.927Z,11.38
2023-05-06T00:21:07.495Z,11.55
2023-05-06T00:23:51.304Z,11.10
2023-05-06T00:26:26.226Z,11.82
2023-05-06T00:29:01.977Z,12.15
2023-05-06T00:31:38.753Z,12.68
2023-05-06T00:34:22.798Z,12.52
2023-05-06T00:37:01.263Z,12.75
2023-05-06T00:39:38.095Z,12.90
2023-05-06T00:42:14.354Z,12.95
2023-05-06T00:44:51.913Z,13.20
2023-05-06T00:47:32.437Z,12.63
2023-05-06T00:50:11.536Z,15.23
2023-05-06T00:52:55.634Z,13.65
2023-05-06T00:55:45.885Z,14.73
2023-05-06T00:58:18.398Z,13.77
2023-05-06T01:00:55.100Z,12.93
2023-05-06T01:03:30.367Z,12.57
2023-05-06T01:06:18.043Z,14.45
2023-05-06T01:09:09.948Z,14.85
2023-05-06T01:11:54.846Z,12.80
2023-05-06T01:14:35.264Z,12.13
2023-05-06T01:17:17.699Z,14.38
2023-05-06T01:20:02.174Z,14.32
2023-05-06T01:22:38.825Z,13.90
2023-05-06T01:25:32.602Z,14.15
2023-05-06T01:28:21.503Z,18.75
2023-05-06T01:31:08.258Z,14.43
2023-05-06T01:33:49.918Z,15.60
2023-05-06T01:36:33.287Z,15.13
2023-05-06T01:39:17.868Z,14.32
2023-05-06T01:41:55.325Z,15.20
2023-05-06T01:44:33.606Z,14.32
2023-05-06T01:47:11.831Z,15.48
2023-05-06T01:49:49.172Z,14.18
2023-05-06T01:52:25.720Z,15.13
2023-05-06T01:55:05.682Z,14.65
2023-05-06T01:57:42.288Z,16.77
2023-05-06T02:00:25.028Z,15.63
2023-05-06T02:02:59.001Z,16.52
2023-05-06T02:05:32.262Z,15.27
2023-05-06T02:08:11.477Z,15.43
2023-05-06T02:10:55.708Z,15.38
2023-05-06T02:13:34.425Z,15.30
2023-05-06T02:16:07.295Z,14.85
2023-05-06T02:18:43.956Z,14.77
2023-05-06T02:21:19.293Z,14.35
2023-05-06T02:23:53.237Z,13.82
2023-05-06T02:26:30.176Z,13.95
2023-05-06T02:29:09.996Z,13.88
2023-05-06T02:31:43.460Z,14.07
2023-05-06T02:34:18.124Z,15.20
2023-05-06T02:36:54.089Z,13.00
2023-05-06T02:39:25.854Z,14.38
2023-05-06T02:42:03.121Z,14.07
2023-05-06T02:44:38.538Z,13.73
2023-05-06T02:47:20.128Z,14.05
2023-05-06T02:50:03.209Z,14.23
2023-05-06T02:52:43.084Z,14.07
2023-05-06T02:55:21.627Z,14.43
2023-05-06T02:57:59.663Z,14.57
2023-05-06T03:00:53.259Z,14.70
2023-05-06T03:03:27.026Z,14.32
2023-05-06T03:06:03.534Z,14.90
2023-05-06T03:08:40.793Z,14.68
2023-05-06T03:11:19.275Z,14.70
2023-05-06T03:13:56.971Z,14.40
2023-05-06T03:16:49.337Z,15.00
2023-05-06T03:21:53.981Z,15.75
2023-05-06T03:24:30.537Z,15.32
2023-05-06T03:27:04.149Z,13.52
2023-05-06T03:29:48.882Z,15.48
2023-05-06T03:32:30.233Z,14.60
2023-05-06T03:35:07.701Z,15.02
2023-05-06T03:37:44.450Z,15.77
2023-05-06T03:40:19.276Z,15.68
2023-05-06T03:43:08.742Z,16.17
2023-05-06T03:45:45.138Z,16.25
2023-05-06T03:48:24.404Z,15.18
2023-05-06T03:51:08.444Z,16.00
2023-05-06T03:53:51.768Z,15.50
2023-05-06T03:56:31.943Z,18.05
2023-05-06T03:59:15.952Z,18.95
2023-05-06T04:01:55.255Z,18.52
2023-05-06T04:04:33.210Z,18.15
2023-05-06T04:07:08.379Z,17.65
2023-05-06T04:09:44.782Z,18.75
2023-05-06T04:12:19.682Z,17.13
2023-05-06T04:14:58.977Z,16.27
2023-05-06T04:17:36.344Z,17.38
2023-05-06T04:20:31.944Z,17.23
2023-05-06T04:23:06.808Z,18.45
2023-05-06T04:25:56.551Z,20.90
2023-05-06T04:28:33.526Z,20.00
2023-05-06T04:31:13.313Z,21.42
2023-05-06T04:33:56.002Z,22.20
2023-05-06T04:36:39.416Z,22.20
2023-05-06T04:39:28.934Z,24.10
2023-05-06T04:42:10.860Z,26.20
2023-05-06T04:45:02.127Z,28.02
2023-05-06T04:47:41.959Z,25.85
2023-05-06T04:50:23.176Z,28.02
2023-05-06T04:53:01.236Z,31.90
2023-05-06T04:55:41.329Z,28.38
2023-05-06T04:58:18.927Z,28.20
2023-05-06T05:00:53.654Z,31.65
2023-05-06T05:03:28.074Z,31.83
2023-05-06T05:06:06.084Z,28.75
2023-05-06T05:08:39.873Z,31.05
2023-05-06T05:11:24.189Z,31.55
2023-05-06T05:14:01.965Z,30.15
2023-05-06T05:16:46.603Z,29.05
2023-05-06T05:19:23.799Z,31.80
2023-05-06T05:21:57.748Z,31.80
2023-05-06T05:24:35.416Z,31.45
2023-05-06T05:27:12.602Z,33.53
2023-05-06T05:30:01.587Z,30.63
2023-05-06T05:32:50.357Z,29.80
2023-05-06T05:35:37.404Z,28.88
2023-05-06T05:38:14.575Z,28.10
2023-05-06T05:40:48.336Z,29.13
2023-05-06T05:43:22.319Z,29.05
2023-05-06T05:46:05.918Z,29.52
2023-05-06T05:51:21.024Z,30.83
2023-05-06T05:54:05.198Z,30.45
2023-05-06T05:56:56.448Z,32.83
2023-05-06T05:59:31.725Z,33.40
2023-05-06T06:02:13.955Z,31.00
2023-05-06T06:04:51.789Z,29.98
2023-05-06T06:07:22.665Z,27.15
2023-05-06T06:10:02.584Z,32.70
2023-05-06T06:12:39.871Z,33.33
2023-05-06T06:15:18.525Z,29.45
2023-05-06T06:18:00.965Z,28.48
2023-05-06T06:20:39.995Z,27.30
2023-05-06T06:23:14.757Z,23.52
2023-05-06T06:25:51.697Z,24.60
2023-05-06T06:28:33.702Z,24.08
2023-05-06T06:31:10.167Z,23.92
2023-05-06T06:33:44.936Z,24.40
2023-05-06T06:36:17.173Z,24.23
2023-05-06T06:38:54.992Z,25.70
2023-05-06T06:41:32.280Z,23.30
2023-05-06T06:44:09.939Z,22.65
2023-05-06T06:46:52.074Z,23.35
2023-05-06T06:49:23.959Z,22.08
2023-05-06T06:52:01.879Z,21.35
2023-05-06T06:54:38.404Z,21.45
2023-05-06T06:57:13.206Z,21.38
2023-05-06T07:00:02.789Z,21.20
2023-05-06T07:02:41.405Z,20.63
2023-05-06T07:05:22.574Z,18.83
2023-05-06T07:07:55.043Z,19.10
2023-05-06T07:10:33.484Z,18.27
2023-05-06T07:13:17.494Z,18.65
2023-05-06T07:16:00.975Z,17.38
2023-05-06T07:18:38.277Z,17.17
2023-05-06T07:21:11.935Z,15.43
2023-05-06T07:23:45.225Z,16.15
2023-05-06T07:26:26.641Z,15.82
2023-05-06T07:29:05.582Z,15.70
2023-05-06T07:31:44.908Z,14.68
2023-05-06T07:34:27.656Z,14.27
2023-05-06T07:37:04.224Z,14.10
2023-05-06T07:39:42.610Z,12.77
2023-05-06T07:42:16.138Z,15.13
2023-05-06T07:44:49.318Z,14.88
2023-05-06T07:47:35.577Z,13.50
2023-05-06T07:50:20.368Z,11.73
2023-05-06T07:52:57.496Z,11.70
2023-05-06T07:55:47.436Z,12.75
2023-05-06T07:58:23.362Z,11.48
2023-05-06T08:01:01.899Z,8.50
2023-05-06T08:03:41.632Z,11.90
2023-05-06T08:06:16.163Z,11.55
2023-05-06T08:08:52.355Z,6.32
2023-05-06T08:11:28.989Z,8.80
2023-05-06T08:14:06.187Z,6.68
2023-05-06T08:16:44.261Z,7.13
2023-05-06T08:19:26.401Z,9.20
2023-05-06T08:22:05.453Z,8.43
2023-05-06T08:24:48.616Z,8.13
2023-05-06T08:27:38.191Z,7.63
2023-05-06T08:30:18.953Z,7.07
2023-05-06T08:32:58.246Z,7.80
2023-05-06T08:35:34.952Z,8.00
2023-05-06T08:38:10.177Z,6.90
2023-05-06T08:40:46.750Z,6.63
2023-05-06T08:43:28.091Z,6.82
2023-05-06T08:46:06.477Z,5.57
2023-05-06T08:48:49.889Z,6.03
2023-05-06T08:51:39.460Z,5.90
2023-05-06T08:54:18.884Z,5.47
2023-05-06T08:56:57.538Z,5.38
2023-05-06T08:59:41.015Z,4.85
2023-05-06T09:02:31.493Z,5.63
2023-05-06T09:05:15.369Z,5.60
2023-05-06T09:07:54.561Z,5.00
2023-05-06T09:10:43.255Z,5.07
2023-05-06T09:13:23.713Z,5.10
2023-05-06T09:16:02.875Z,4.43
2023-05-06T09:18:41.250Z,5.18
2023-05-06T09:21:14.405Z,4.32
2023-05-06T09:23:56.517Z,4.70
2023-05-06T09:26:35.470Z,4.25
2023-05-06T09:29:12.012Z,4.57
2023-05-06T09:31:59.098Z,4.65
2023-05-06T09:34:40.422Z,3.85
2023-05-06T09:37:21.266Z,4.00
2023-05-06T09:40:02.985Z,4.53
2023-05-06T09:42:39.605Z,4.18
2023-05-06T09:45:31.245Z,3.85
2023-05-06T09:48:18.489Z,3.30
2023-05-06T09:51:13.622Z,3.72
2023-05-06T09:54:01.810Z,3.35
2023-05-06T09:56:44.297Z,3.63
2023-05-06T09:59:25.785Z,3.13
2023-05-06T10:02:03.440Z,3.58
2023-05-06T10:04:45.084Z,2.65
2023-05-06T10:07:34.824Z,3.13
2023-05-06T10:10:25.236Z,3.40
2023-05-06T10:13:08.566Z,2.55
2023-05-06T10:15:48.264Z,3.33
2023-05-06T10:18:26.865Z,3.35
2023-05-06T10:21:08.800Z,3.38
2023-05-06T10:24:01.490Z,3.08
2023-05-06T10:26:39.814Z,3.35
2023-05-06T10:29:28.418Z,2.80
2023-05-06T10:32:12.331Z,2.75
2023-05-06T10:35:00.919Z,2.58
2023-05-06T10:37:43.785Z,3.05
2023-05-06T10:43:37.038Z,3.17
2023-05-06T10:49:33.754Z,2.70
2023-05-06T10:52:29.668Z,2.90
2023-05-06T10:55:08.887Z,3.13
2023-05-06T10:57:53.936Z,2.80
2023-05-06T11:00:36.625Z,2.85
2023-05-06T11:03:17.586Z,3.75
2023-05-06T11:06:09.285Z,4.47
2023-05-06T11:09:06.649Z,4.05
2023-05-06T11:15:03.234Z,3.75
2023-05-06T11:17:57.920Z,3.70
2023-05-06T11:20:41.731Z,3.78
2023-05-06T11:23:21.294Z,3.15
2023-05-06T11:26:00.098Z,3.55
2023-05-06T11:28:42.821Z,3.80
2023-05-06T11:31:26.857Z,3.30
2023-05-06T11:34:10.578Z,3.70
2023-05-06T11:37:05.975Z,3.28
2023-05-06T11:39:47.203Z,3.58
2023-05-06T11:42:35.301Z,3.70
2023-05-06T11:45:20.908Z,3.83
2023-05-06T11:48:03.321Z,3.33
2023-05-06T11:50:48.870Z,3.75
2023-05-06T11:53:30.956Z,3.38
2023-05-06T11:56:17.697Z,3.28
2023-05-06T11:58:58.624Z,3.22
2023-05-06T12:01:32.612Z,3.40
2023-05-06T12:04:07.988Z,3.38
2023-05-06T12:06:44.023Z,3.53
2023-05-06T12:09:27.098Z,5.28
2023-05-06T12:12:06.516Z,3.13
2023-05-06T12:14:52.098Z,3.90
2023-05-06T12:17:27.621Z,4.65
2023-05-06T12:19:59.199Z,4.03
2023-05-06T12:22:39.523Z,3.92
2023-05-06T12:25:22.472Z,3.67
2023-05-06T12:27:54.945Z,3.50
2023-05-06T12:30:44.458Z,3.08
2023-05-06T12:33:21.665Z,3.50
2023-05-06T12:36:15.761Z,3.28
2023-05-06T12:39:00.316Z,3.58
2023-05-06T12:41:47.237Z,3.75
2023-05-06T12:44:40.985Z,3.63
2023-05-06T12:47:16.503Z,3.00
2023-05-06T12:50:01.573Z,3.20
2023-05-06T12:52:40.293Z,3.80
2023-05-06T12:55:23.056Z,3.40
2023-05-06T12:57:58.558Z,2.67
2023-05-06T13:00:42.468Z,2.83
2023-05-06T13:03:18.318Z,3.25
2023-05-06T13:05:55.945Z,3.70
2023-05-06T13:08:35.541Z,2.90
2023-05-06T13:11:09.337Z,2.88
2023-05-06T13:13:49.917Z,3.03
2023-05-06T13:16:25.484Z,3.38
2023-05-06T13:18:57.735Z,3.30
2023-05-06T13:21:34.254Z,3.00
2023-05-06T13:24:07.503Z,2.80
2023-05-06T13:26:40.012Z,3.20
2023-05-06T13:29:25.476Z,3.60
2023-05-06T13:32:07.085Z,3.20
2023-05-06T13:34:40.980Z,3.42
2023-05-06T13:37:15.212Z,3.70
2023-05-06T13:39:54.292Z,3.53
2023-05-06T13:42:25.309Z,2.83
2023-05-06T13:45:09.152Z,3.33
2023-05-06T13:47:44.460Z,2.92
2023-05-06T13:50:32.679Z,2.85
2023-05-06T13:53:04.803Z,2.83
2023-05-06T13:55:43.904Z,3.10
2023-05-06T13:58:14.365Z,3.30
2023-05-06T14:00:55.966Z,3.35
2023-05-06T14:03:27.782Z,2.70
2023-05-06T14:06:03.512Z,3.03
2023-05-06T14:08:36.155Z,3.30
2023-05-06T14:11:15.329Z,3.50
2023-05-06T14:13:54.076Z,3.30
2023-05-06T14:16:31.227Z,3.17
2023-05-06T14:19:08.179Z,2.97
2023-05-06T14:21:52.172Z,2.92
2023-05-06T14:24:31.147Z,2.92
2023-05-06T14:27:08.875Z,3.63
2023-05-06T14:29:43.326Z,2.83
2023-05-06T14:32:21.816Z,3.15
2023-05-06T14:34:58.885Z,3.53
2023-05-06T14:37:40.058Z,3.13
2023-05-06T14:40:25.864Z,3.55
2023-05-06T14:43:00.933Z,3.08
2023-05-06T14:45:41.137Z,3.63
2023-05-06T14:48:21.564Z,3.05
2023-05-06T14:50:57.953Z,3.55
2023-05-06T14:53:36.549Z,3.15
2023-05-06T14:56:16.431Z,3.63
2023-05-06T14:58:51.653Z,3.17
2023-05-06T15:01:39.813Z,3.65
2023-05-06T15:04:24.024Z,3.97
2023-05-06T15:07:06.509Z,3.28
2023-05-06T15:09:55.015Z,3.30
2023-05-06T15:12:31.672Z,3.20
2023-05-06T15:15:14.090Z,3.53
2023-05-06T15:17:48.542Z,3.15
2023-05-06T15:20:25.452Z,4.75
2023-05-06T15:23:07.034Z,2.63
2023-05-06T15:25:42.966Z,2.53
2023-05-06T15:28:17.711Z,2.70
2023-05-06T15:30:53.177Z,2.42
2023-05-06T15:33:27.017Z,2.67
2023-05-06T15:36:08.669Z,2.80
2023-05-06T15:39:01.201Z,3.00
2023-05-06T15:41:38.279Z,2.80
2023-05-06T15:44:15.957Z,2.72
2023-05-06T15:46:51.777Z,3.15
2023-05-06T15:52:25.354Z,3.25
2023-05-06T15:55:14.249Z,3.03
2023-05-06T15:57:50.164Z,3.00
2023-05-06T16:00:26.417Z,2.58
2023-05-06T16:03:05.966Z,2.95
2023-05-06T16:08:29.396Z,3.13
2023-05-06T16:11:08.220Z,2.53
2023-05-06T16:13:47.751Z,2.90
2023-05-06T16:16:28.773Z,2.80
2023-05-06T16:19:20.423Z,2.40
2023-05-06T16:22:06.324Z,3.00
2023-05-06T16:24:45.879Z,2.75
2023-05-06T16:27:20.527Z,3.05
2023-05-06T16:30:01.885Z,2.58
2023-05-06T16:32:46.410Z,2.25
2023-05-06T16:35:25.933Z,2.55
2023-05-06T16:38:06.964Z,2.63
2023-05-06T16:40:51.329Z,2.50
2023-05-06T16:43:37.183Z,2.25
2023-05-06T16:46:09.469Z,2.38
2023-05-06T16:48:46.949Z,2.50
2023-05-06T16:51:22.331Z,2.05
2023-05-06T16:54:02.725Z,2.83
2023-05-06T16:56:51.461Z,3.45
2023-05-06T16:59:24.433Z,2.78
2023-05-06T17:01:59.272Z,2.80
2023-05-06T17:04:40.380Z,3.03
2023-05-06T17:07:16.269Z,2.58
2023-05-06T17:10:02.841Z,2.75
2023-05-06T17:15:25.010Z,2.80
2023-05-06T17:17:55.601Z,3.20
2023-05-06T17:20:26.189Z,3.28
2023-05-06T17:22:56.389Z,3.00
2023-05-06T17:25:26.634Z,2.97
2023-05-06T17:27:56.869Z,3.13
2023-05-06T17:30:29.799Z,3.25
2023-05-06T17:33:03.163Z,3.13
2023-05-06T17:35:33.388Z,2.80
2023-05-06T17:38:03.598Z,3.40
2023-05-06T17:40:33.846Z,3.65
2023-05-06T17:43:04.077Z,3.13
2023-05-06T17:45:36.920Z,3.83
2023-05-06T17:48:10.126Z,4.00
2023-05-06T17:50:40.437Z,4.00
2023-05-06T17:53:13.570Z,3.30
2023-05-06T17:55:44.004Z,3.95
2023-05-06T17:58:14.600Z,4.15
2023-05-06T18:00:49.942Z,4.57
2023-05-06T18:03:20.605Z,4.30
2023-05-06T18:05:51.306Z,4.57
2023-05-06T18:08:21.841Z,4.75
2023-05-06T18:10:53.692Z,3.63
2023-05-06T18:13:24.500Z,4.63
2023-05-06T18:18:28.139Z,3.78
2023-05-06T18:20:58.527Z,4.32
2023-05-06T18:23:29.926Z,3.80
2023-05-06T18:26:00.682Z,4.22
2023-05-06T18:28:32.064Z,3.55
2023-05-06T18:31:07.206Z,3.75
2023-05-06T18:33:38.231Z,3.65
2023-05-06T18:38:39.205Z,3.90
2023-05-06T18:46:17.282Z,4.32
2023-05-06T18:48:47.543Z,3.67
2023-05-06T18:51:18.904Z,4.43
2023-05-06T18:53:49.189Z,3.42
2023-05-06T18:56:19.717Z,3.72
2023-05-06T18:58:50.129Z,3.28
2023-05-06T19:01:25.339Z,4.82
2023-05-06T19:03:55.976Z,127.57
2023-05-06T19:06:26.550Z,35.53
2023-05-06T19:08:56.861Z,5.55
2023-05-06T19:11:27.280Z,4.40
2023-05-06T19:13:57.968Z,4.18
2023-05-06T19:16:31.851Z,3.90
2023-05-06T19:19:02.984Z,3.60
2023-05-06T19:21:33.295Z,3.88
2023-05-06T19:26:34.397Z,3.38
2023-05-06T19:29:04.986Z,3.95
2023-05-06T19:31:38.163Z,4.07
2023-05-06T19:34:08.717Z,3.45
2023-05-06T19:36:39.373Z,3.95
2023-05-06T19:39:09.632Z,4.22
2023-05-06T19:41:40.093Z,3.70
2023-05-06T19:44:12.867Z,4.05
2023-05-06T19:46:45.940Z,3.88
2023-05-06T19:49:16.198Z,4.05
2023-05-06T19:51:46.544Z,3.83
2023-05-06T19:54:17.019Z,4.05
2023-05-06T19:56:47.556Z,4.00
2023-05-06T19:59:19.947Z,4.22
2023-05-06T20:01:53.538Z,4.50
2023-05-06T20:04:23.870Z,3.83
2023-05-06T20:06:55.369Z,4.15
2023-05-06T20:09:25.983Z,4.05
2023-05-06T20:11:56.579Z,4.05
2023-05-06T20:14:26.776Z,4.20
2023-05-06T20:16:59.828Z,4.80
2023-05-06T20:19:31.473Z,4.40
2023-05-06T20:22:02.675Z,4.75
2023-05-06T20:24:37.352Z,4.38
2023-05-06T20:27:08.286Z,5.22
2023-05-06T20:29:38.969Z,4.97
2023-05-06T20:32:12.047Z,4.88
2023-05-06T20:34:42.342Z,4.32
2023-05-06T20:37:13.512Z,5.07
2023-05-06T20:39:46.816Z,4.50
2023-05-06T20:42:17.042Z,4.97
2023-05-06T20:44:47.473Z,4.40
2023-05-06T20:47:21.538Z,3.70
2023-05-06T20:49:52.051Z,4.32
2023-05-06T20:52:22.706Z,3.85
2023-05-06T20:54:53.550Z,3.97
2023-05-06T20:57:25.484Z,3.78
2023-05-06T20:59:56.539Z,3.72
2023-05-06T21:02:32.990Z,4.50
2023-05-06T21:05:09.227Z,4.57
2023-05-06T21:07:43.087Z,4.85
2023-05-06T21:10:14.890Z,4.70
2023-05-06T21:12:50.608Z,4.57
2023-05-06T21:15:21.327Z,5.28
2023-05-06T21:17:54.326Z,4.93
2023-05-06T21:20:24.707Z,5.20
2023-05-06T21:22:55.476Z,5.50
2023-05-06T21:25:28.171Z,6.65
2023-05-06T21:28:03.794Z,6.47
2023-05-06T21:30:34.235Z,5.68
2023-05-06T21:33:08.606Z,6.30
2023-05-06T21:35:41.170Z,6.43
2023-05-06T21:38:11.496Z,6.07
2023-05-06T21:40:41.745Z,6.35
2023-05-06T21:43:12.783Z,6.78
2023-05-06T21:45:42.899Z,6.75
2023-05-06T21:48:16.089Z,6.80
2023-05-06T21:50:46.421Z,6.32
2023-05-06T21:53:17.382Z,7.13
2023-05-06T21:58:17.727Z,6.32
2023-05-06T22:00:48.387Z,7.57
2023-05-06T22:03:21.415Z,6.72
2023-05-06T22:05:54.349Z,6.15
2023-05-06T22:08:25.319Z,5.90
2023-05-06T22:13:27.200Z,6.73
2023-05-06T22:15:58.037Z,6.10
2023-05-06T22:18:32.690Z,7.03
2023-05-06T22:21:03.581Z,6.03
2023-05-06T22:26:04.170Z,6.60
2023-05-06T22:28:34.352Z,6.23
2023-05-06T22:31:04.602Z,5.77
2023-05-06T22:33:37.384Z,5.72
2023-05-06T22:36:08.405Z,6.13
2023-05-06T22:38:39.406Z,5.70
2023-05-06T22:41:09.540Z,6.35
2023-05-06T22:43:39.715Z,5.90
2023-05-06T22:46:09.966Z,6.00
2023-05-06T22:48:47.233Z,5.95
2023-05-06T22:51:21.859Z,6.07
2023-05-06T22:53:52.549Z,5.70
2023-05-06T22:56:23.366Z,6.03
2023-05-06T22:58:53.576Z,6.82
2023-05-06T23:01:25.475Z,6.47
2023-05-06T23:03:58.360Z,5.63
2023-05-06T23:06:28.589Z,7.10
2023-05-06T23:08:58.968Z,6.70
2023-05-06T23:11:29.115Z,7.55
2023-05-06T23:13:59.290Z,7.03
2023-05-06T23:16:29.826Z,7.17
2023-05-06T23:19:03.256Z,7.53
2023-05-06T23:21:33.521Z,6.78
2023-05-06T23:24:03.692Z,7.20
2023-05-06T23:26:34.027Z,7.13
2023-05-06T23:29:04.658Z,6.57
2023-05-06T23:31:34.883Z,6.15
2023-05-06T23:34:10.364Z,7.25
2023-05-06T23:36:40.763Z,6.03
2023-05-06T23:39:12.514Z,5.70
2023-05-06T23:41:42.674Z,6.53
2023-05-06T23:44:12.940Z,6.77
2023-05-06T23:46:43.199Z,6.15
2023-05-06T23:49:16.164Z,6.40
2023-05-06T23:51:47.195Z,5.25
2023-05-06T23:56:47.262Z,5.78
2023-05-06T23:59:17.442Z,5.77
